Navigator Spirit — C6WL4 — position and weather

sailwx.info

Track history (hours):
 
Tides and Currents Weather Stations Pressure Air Temp Water Temp Dewpoint Dewpoint Depression Visibility Wind Speed Wind Dir Waves Ship Positions

Navigator Spirit

Last reported at 2018-Jan-22 23:59 UTC. Time now 2018-Jan-23 18:17 UTC.
Position N 29°44' W 095°08'.

Length 241 m; draft 11.8 m.

Type: Tanker. MMSI: 309198000.

Date/timePositionNaut miles runAvg speedWind from/ knotsBaromVisibWave heightAir tempDewpointWater temp
2018-Jan-22 23:59N 29°44' W 095°08'0 0.8
2018-Jan-22 23:30N 29°44' W 095°07'3 5.2
2018-Jan-22 23:00N 29°46' W 095°05'4 6.8
2018-Jan-22 22:29N 29°44' W 095°02'3 6.7
2018-Jan-22 22:00N 29°41' W 094°59'4 8.6
2018-Jan-22 21:30N 29°37' W 094°58'5 9.5
2018-Jan-22 21:01N 29°33' W 094°55'5 9.5
2018-Jan-22 20:30N 29°29' W 094°52'5 9.3
2018-Jan-22 19:59N 29°25' W 094°49'  
Track history (hours):
 
Tides and Currents Weather Stations Pressure Air Temp Water Temp Dewpoint Dewpoint Depression Visibility Wind Speed Wind Dir Waves Ship Positions

Navigator Spirit

Last reported at 2018-Jan-22 23:59 UTC. Time now 2018-Jan-23 18:17 UTC.
Position N 29°44' W 095°08'.

Length 241 m; draft 11.8 m.

Type: Tanker. MMSI: 309198000.

Date/timePositionNaut miles runAvg speedWind from/ knotsBaromVisibWave heightAir tempDewpointWater temp
2018-Jan-22 23:59N 29°44' W 095°08'0 0.8
2018-Jan-22 23:30N 29°44' W 095°07'3 5.2
2018-Jan-22 23:00N 29°46' W 095°05'4 6.8
2018-Jan-22 22:29N 29°44' W 095°02'3 6.7
2018-Jan-22 22:00N 29°41' W 094°59'4 8.6
2018-Jan-22 21:30N 29°37' W 094°58'5 9.5
2018-Jan-22 21:01N 29°33' W 094°55'5 9.5
2018-Jan-22 20:30N 29°29' W 094°52'5 9.3
2018-Jan-22 19:59N 29°25' W 094°49'  

Dump ship's entire track history